Time;durP1;ratioP1;P1;durP2;ratioP2;P2;SDS_P1;SDS_P2;PMS_P1;PMS_P2;Temp;Humidity;BMP_temperature;BMP_pressure;BME280_temperature;BME280_humidity;BME280_pressure;Samples;Min_cycle;Max_cycle;Signal;HPM_P1;HPM_P2
2021/03/07 00:02:18;;;;;;;19.45;8.02;;;;;;;;;;6299136;22;20033;-91
2021/03/07 00:04:45;;;;;;;11.10;6.43;;;;;;;;;;6299698;22;20100;-91
2021/03/07 00:07:13;;;;;;;11.48;6.65;;;;;;;;;;6299073;22;20018;-90
2021/03/07 00:09:40;;;;;;;11.93;5.85;;;;;;;;;;6291494;22;20376;-91
2021/03/07 00:12:07;;;;;;;13.38;5.60;;;;;;;;;;6268344;22;20022;-90
2021/03/07 00:14:35;;;;;;;12.73;6.00;;;;;;;;;;6269049;22;20046;-90
2021/03/07 00:17:02;;;;;;;14.32;5.30;;;;;;;;;;6268349;22;20015;-88
2021/03/07 00:19:30;;;;;;;12.65;5.88;;;;;;;;;;6294170;22;20012;-90
2021/03/07 00:21:57;;;;;;;13.55;5.30;;;;;;;;;;6268720;22;20020;-90
2021/03/07 00:24:24;;;;;;;15.35;5.50;;;;;;;;;;6268217;22;20141;-90
2021/03/07 00:26:51;;;;;;;9.90;5.15;;;;;;;;;;6268735;22;20050;-89
2021/03/07 00:29:19;;;;;;;12.32;5.30;;;;;;;;;;6268162;22;20019;-90
2021/03/07 00:31:46;;;;;;;8.30;4.60;;;;;;;;;;6268823;22;20451;-89
2021/03/07 00:34:13;;;;;;;11.23;4.80;;;;;;;;;;6293247;22;20015;-89
2021/03/07 00:36:41;;;;;;;9.60;4.93;;;;;;;;;;6268567;22;20014;-89
2021/03/07 00:39:08;;;;;;;12.23;4.88;;;;;;;;;;6293224;22;20018;-89
2021/03/07 00:41:35;;;;;;;16.98;5.13;;;;;;;;;;6293938;22;20011;-89
2021/03/07 00:44:05;;;;;;;12.45;5.10;;;;;;;;;;6293716;22;20011;-89
2021/03/07 00:46:32;;;;;;;10.13;4.72;;;;;;;;;;6293638;22;20061;-88
2021/03/07 00:48:59;;;;;;;8.70;4.32;;;;;;;;;;6294041;22;20012;-88
2021/03/07 00:51:27;;;;;;;13.38;5.18;;;;;;;;;;6267980;22;20023;-88
2021/03/07 00:53:54;;;;;;;12.38;4.47;;;;;;;;;;6293548;22;20032;-89
2021/03/07 00:56:21;;;;;;;10.35;4.72;;;;;;;;;;6293265;22;20018;-88
2021/03/07 00:58:48;;;;;;;9.45;5.07;;;;;;;;;;6293767;22;20070;-89
2021/03/07 01:01:16;;;;;;;12.43;5.53;;;;;;;;;;6293091;22;20015;-88
2021/03/07 01:03:43;;;;;;;10.10;4.35;;;;;;;;;;6293205;22;20015;-89
2021/03/07 01:06:10;;;;;;;12.18;4.82;;;;;;;;;;6268002;22;20003;-88
2021/03/07 01:08:38;;;;;;;12.63;5.13;;;;;;;;;;6293347;22;20012;-89
2021/03/07 01:11:06;;;;;;;9.05;4.82;;;;;;;;;;6293059;22;20094;-88
2021/03/07 01:13:33;;;;;;;8.95;4.22;;;;;;;;;;6292958;22;20043;-88
2021/03/07 01:16:00;;;;;;;14.90;5.85;;;;;;;;;;6293704;22;20008;-88
2021/03/07 01:18:27;;;;;;;8.32;4.50;;;;;;;;;;6267561;22;20432;-89
2021/03/07 01:20:55;;;;;;;11.38;5.03;;;;;;;;;;6268202;22;20035;-89
2021/03/07 01:23:22;;;;;;;12.05;4.38;;;;;;;;;;6267659;22;20004;-88
2021/03/07 01:25:50;;;;;;;10.90;4.57;;;;;;;;;;6320055;22;20016;-89
2021/03/07 01:28:17;;;;;;;10.07;4.95;;;;;;;;;;6292855;22;20012;-89
2021/03/07 01:30:44;;;;;;;11.38;4.32;;;;;;;;;;6267931;22;20069;-89
2021/03/07 01:33:12;;;;;;;9.40;4.53;;;;;;;;;;6293268;22;20012;-89
2021/03/07 01:35:39;;;;;;;12.00;5.00;;;;;;;;;;6267647;22;20659;-89
2021/03/07 01:38:07;;;;;;;9.10;4.50;;;;;;;;;;6293048;22;20019;-88
2021/03/07 01:40:37;;;;;;;11.05;4.72;;;;;;;;;;6267486;22;20087;-88
2021/03/07 01:43:05;;;;;;;10.73;4.28;;;;;;;;;;6292547;22;20007;-89
2021/03/07 01:45:32;;;;;;;10.35;4.30;;;;;;;;;;6267700;22;20463;-89
2021/03/07 01:48:05;;;;;;;9.85;4.20;;;;;;;;;;6268115;22;20431;-89
2021/03/07 01:50:32;;;;;;;8.32;3.75;;;;;;;;;;6292194;22;20043;-89
2021/03/07 01:53:00;;;;;;;8.38;3.60;;;;;;;;;;6293204;22;20015;-89
2021/03/07 01:55:28;;;;;;;6.05;3.28;;;;;;;;;;6242022;22;20427;-88
2021/03/07 01:58:16;;;;;;;7.72;3.60;;;;;;;;;;6292990;22;20089;-88
2021/03/07 02:00:43;;;;;;;6.63;3.35;;;;;;;;;;6292117;22;20026;-89
2021/03/07 02:03:10;;;;;;;8.57;4.13;;;;;;;;;;6292779;22;20040;-89
2021/03/07 02:05:38;;;;;;;8.38;3.95;;;;;;;;;;6242106;22;20015;-88
2021/03/07 02:08:07;;;;;;;10.38;4.05;;;;;;;;;;6292661;22;20042;-89
2021/03/07 02:10:39;;;;;;;9.20;3.75;;;;;;;;;;6312495;22;20022;-89
2021/03/07 02:13:14;;;;;;;8.45;3.95;;;;;;;;;;6298791;22;20447;-89
2021/03/07 02:15:43;;;;;;;9.03;3.93;;;;;;;;;;6323324;22;20081;-89
2021/03/07 02:18:14;;;;;;;7.75;3.92;;;;;;;;;;6334908;22;20011;-89
2021/03/07 02:20:49;;;;;;;7.93;3.47;;;;;;;;;;6323593;22;20339;-88
2021/03/07 02:23:19;;;;;;;7.60;3.40;;;;;;;;;;6323700;22;20022;-89
2021/03/07 02:25:46;;;;;;;7.57;3.00;;;;;;;;;;6323111;22;20007;-88
2021/03/07 02:28:14;;;;;;;9.43;4.10;;;;;;;;;;6323960;22;20212;-89
2021/03/07 02:30:41;;;;;;;6.63;3.30;;;;;;;;;;6299006;22;20052;-88
2021/03/07 02:33:18;;;;;;;6.57;3.65;;;;;;;;;;6326134;22;20011;-89
2021/03/07 02:36:05;;;;;;;8.10;3.42;;;;;;;;;;6362632;22;20435;-89
2021/03/07 02:38:35;;;;;;;7.63;3.53;;;;;;;;;;6333446;22;20011;-89
2021/03/07 02:41:02;;;;;;;12.70;3.78;;;;;;;;;;6352757;22;20034;-89
2021/03/07 02:43:32;;;;;;;8.52;3.72;;;;;;;;;;6325210;22;20090;-89
2021/03/07 02:46:01;;;;;;;8.32;3.95;;;;;;;;;;6325488;22;20011;-89
2021/03/07 02:48:29;;;;;;;7.90;3.75;;;;;;;;;;6325132;22;20034;-88
2021/03/07 02:51:01;;;;;;;9.00;3.60;;;;;;;;;;6299982;22;20082;-89
2021/03/07 02:53:30;;;;;;;8.10;3.63;;;;;;;;;;6299294;22;20093;-88
2021/03/07 02:56:04;;;;;;;8.60;3.33;;;;;;;;;;6325619;22;20007;-89
2021/03/07 02:58:32;;;;;;;12.45;4.20;;;;;;;;;;6298979;22;20018;-89
2021/03/07 03:01:01;;;;;;;6.72;3.33;;;;;;;;;;6300120;22;20015;-89
2021/03/07 03:03:30;;;;;;;5.90;3.30;;;;;;;;;;6324951;22;20094;-88
2021/03/07 03:05:58;;;;;;;7.15;3.40;;;;;;;;;;6325310;22;20497;-89
2021/03/07 03:08:28;;;;;;;7.95;3.28;;;;;;;;;;6325991;22;20086;-89
2021/03/07 03:10:56;;;;;;;5.25;3.08;;;;;;;;;;6324700;22;20019;-88
2021/03/07 03:13:23;;;;;;;5.07;3.05;;;;;;;;;;6299803;22;20021;-89
2021/03/07 03:15:51;;;;;;;7.18;2.67;;;;;;;;;;6325096;22;20022;-89
2021/03/07 03:18:20;;;;;;;6.40;2.67;;;;;;;;;;6325279;22;20106;-88
2021/03/07 03:20:48;;;;;;;6.55;3.00;;;;;;;;;;6324643;22;20034;-89
2021/03/07 03:23:16;;;;;;;8.30;3.15;;;;;;;;;;6325227;22;20505;-87
2021/03/07 03:25:43;;;;;;;7.95;2.90;;;;;;;;;;6299332;22;20094;-88
2021/03/07 03:28:12;;;;;;;6.30;2.80;;;;;;;;;;6325743;22;20018;-89
2021/03/07 03:30:40;;;;;;;5.10;2.88;;;;;;;;;;6299988;22;20012;-88
2021/03/07 03:33:07;;;;;;;6.32;2.85;;;;;;;;;;6351918;22;20026;-89
2021/03/07 03:35:34;;;;;;;7.25;3.10;;;;;;;;;;6351784;22;20074;-88
2021/03/07 03:38:01;;;;;;;4.63;2.55;;;;;;;;;;6299978;22;20014;-89
2021/03/07 03:40:29;;;;;;;8.05;3.00;;;;;;;;;;6299724;22;20069;-89
2021/03/07 03:42:58;;;;;;;6.82;2.65;;;;;;;;;;6351535;22;20340;-88
2021/03/07 03:45:26;;;;;;;6.57;2.58;;;;;;;;;;6325047;22;20041;-89
2021/03/07 03:47:56;;;;;;;10.75;3.10;;;;;;;;;;6299345;22;20011;-89
2021/03/07 03:50:24;;;;;;;6.82;2.78;;;;;;;;;;6325078;22;20015;-89
2021/03/07 03:52:52;;;;;;;6.88;2.80;;;;;;;;;;6324417;22;20015;-89
2021/03/07 03:55:22;;;;;;;4.85;2.63;;;;;;;;;;6324917;22;20335;-89
2021/03/07 03:57:53;;;;;;;6.88;2.55;;;;;;;;;;6298843;22;20012;-89
2021/03/07 04:00:22;;;;;;;8.07;2.88;;;;;;;;;;6324993;22;20008;-89
2021/03/07 04:02:49;;;;;;;6.35;2.70;;;;;;;;;;6324367;22;20069;-89
2021/03/07 04:05:18;;;;;;;5.47;2.42;;;;;;;;;;6299705;22;20458;-89
2021/03/07 04:07:46;;;;;;;5.30;3.00;;;;;;;;;;6324251;22;20466;-88
2021/03/07 04:10:15;;;;;;;7.40;2.63;;;;;;;;;;6324960;22;20068;-89
2021/03/07 04:12:44;;;;;;;4.95;2.65;;;;;;;;;;6324307;22;20432;-88
2021/03/07 04:15:11;;;;;;;5.30;2.88;;;;;;;;;;6299278;22;20086;-88
2021/03/07 04:17:39;;;;;;;6.00;2.38;;;;;;;;;;6324531;22;20007;-88
2021/03/07 04:20:06;;;;;;;7.60;2.30;;;;;;;;;;6299677;22;20037;-88
2021/03/07 04:22:34;;;;;;;5.15;2.15;;;;;;;;;;6324787;22;20062;-89
2021/03/07 04:25:02;;;;;;;5.90;2.47;;;;;;;;;;6299083;22;20015;-88
2021/03/07 04:27:29;;;;;;;4.80;2.00;;;;;;;;;;6324752;22;20082;-88
2021/03/07 04:29:57;;;;;;;4.65;2.05;;;;;;;;;;6323976;22;20105;-89
2021/03/07 04:32:24;;;;;;;5.70;2.00;;;;;;;;;;6324971;22;20011;-89
2021/03/07 04:34:52;;;;;;;6.15;2.28;;;;;;;;;;6324070;22;20015;-89
2021/03/07 04:37:19;;;;;;;5.28;2.28;;;;;;;;;;6325138;22;20039;-89
2021/03/07 04:39:46;;;;;;;6.35;2.30;;;;;;;;;;6298664;22;20381;-88
2021/03/07 04:42:13;;;;;;;6.65;2.70;;;;;;;;;;6299205;22;20035;-89
2021/03/07 04:44:41;;;;;;;7.63;1.95;;;;;;;;;;6324512;22;20141;-88
2021/03/07 04:47:08;;;;;;;4.78;2.10;;;;;;;;;;6323755;22;20149;-89
2021/03/07 04:49:35;;;;;;;6.03;2.22;;;;;;;;;;6324637;22;20007;-88
2021/03/07 04:52:03;;;;;;;6.88;2.80;;;;;;;;;;6324264;22;20031;-89
2021/03/07 04:54:30;;;;;;;4.45;2.05;;;;;;;;;;6324447;22;20015;-89
2021/03/07 04:56:57;;;;;;;4.75;2.17;;;;;;;;;;6298402;22;20003;-88
2021/03/07 04:59:24;;;;;;;5.10;2.60;;;;;;;;;;6298429;22;20094;-88
2021/03/07 05:01:52;;;;;;;5.50;2.15;;;;;;;;;;6298422;22;20087;-88
2021/03/07 05:04:19;;;;;;;7.55;2.10;;;;;;;;;;6324505;22;20008;-89
2021/03/07 05:06:46;;;;;;;6.47;2.10;;;;;;;;;;6299369;22;20090;-89
2021/03/07 05:09:13;;;;;;;4.90;2.10;;;;;;;;;;6324327;22;20130;-88
2021/03/07 05:11:41;;;;;;;5.88;2.15;;;;;;;;;;6271105;22;20066;-89
2021/03/07 05:14:09;;;;;;;4.85;2.40;;;;;;;;;;6292382;22;20019;-88
2021/03/07 05:16:36;;;;;;;6.03;2.50;;;;;;;;;;6292757;22;20018;-88
2021/03/07 05:19:04;;;;;;;6.30;2.30;;;;;;;;;;6267087;22;20018;-88
2021/03/07 05:21:32;;;;;;;5.60;2.17;;;;;;;;;;6292974;22;20014;-89
2021/03/07 05:24:00;;;;;;;5.20;2.25;;;;;;;;;;6267568;22;20012;-88
2021/03/07 05:26:29;;;;;;;9.77;2.38;;;;;;;;;;6268524;22;20011;-89
2021/03/07 05:28:56;;;;;;;3.92;2.15;;;;;;;;;;6292431;22;20012;-88
2021/03/07 05:31:24;;;;;;;3.60;2.03;;;;;;;;;;6267717;22;20007;-88
2021/03/07 05:33:57;;;;;;;7.15;2.30;;;;;;;;;;6291878;22;20038;-88
2021/03/07 05:36:24;;;;;;;6.78;2.10;;;;;;;;;;6293244;22;20042;-88
2021/03/07 05:38:52;;;;;;;6.20;2.00;;;;;;;;;;6267701;22;20008;-87
2021/03/07 05:41:20;;;;;;;4.85;1.90;;;;;;;;;;6268470;22;20084;-88
2021/03/07 05:43:48;;;;;;;9.18;2.30;;;;;;;;;;6293291;22;20722;-88
2021/03/07 05:46:16;;;;;;;3.58;2.20;;;;;;;;;;6292438;22;20090;-88
2021/03/07 05:48:43;;;;;;;5.50;2.10;;;;;;;;;;6293134;22;20091;-88
2021/03/07 05:51:14;;;;;;;3.90;2.20;;;;;;;;;;6242315;22;20014;-88
2021/03/07 05:53:42;;;;;;;3.05;1.85;;;;;;;;;;6242783;22;20099;-88
2021/03/07 05:56:10;;;;;;;5.32;2.20;;;;;;;;;;6267368;22;20015;-88
2021/03/07 05:58:39;;;;;;;7.53;2.10;;;;;;;;;;6293140;22;20012;-88
2021/03/07 06:01:07;;;;;;;5.15;2.00;;;;;;;;;;6292141;22;20042;-88
2021/03/07 06:03:34;;;;;;;6.90;2.47;;;;;;;;;;6293369;22;20034;-88
2021/03/07 06:06:09;;;;;;;6.10;1.95;;;;;;;;;;6267165;22;20343;-88
2021/03/07 06:08:36;;;;;;;4.68;2.00;;;;;;;;;;6299520;22;20008;-88
2021/03/07 06:11:03;;;;;;;4.80;2.15;;;;;;;;;;6267001;22;20012;-88
2021/03/07 06:13:38;;;;;;;5.07;2.00;;;;;;;;;;6267525;22;20022;-89
2021/03/07 06:16:07;;;;;;;6.70;2.20;;;;;;;;;;6292073;22;20404;-88
2021/03/07 06:18:44;;;;;;;5.53;2.30;;;;;;;;;;6292749;22;20368;-88
2021/03/07 06:21:27;;;;;;;5.97;2.65;;;;;;;;;;6319136;22;20020;-88
2021/03/07 06:23:55;;;;;;;5.88;2.45;;;;;;;;;;6292978;22;20019;-89
2021/03/07 06:26:22;;;;;;;7.80;2.83;;;;;;;;;;6291946;22;20011;-89
2021/03/07 06:29:09;;;;;;;5.05;2.30;;;;;;;;;;6267118;22;20008;-89
2021/03/07 06:31:36;;;;;;;4.72;2.40;;;;;;;;;;6267518;22;20011;-89
2021/03/07 06:34:04;;;;;;;4.70;2.35;;;;;;;;;;6267169;22;20022;-90
2021/03/07 06:36:31;;;;;;;6.43;2.35;;;;;;;;;;6268060;22;20042;-89
2021/03/07 06:39:03;;;;;;;5.28;2.45;;;;;;;;;;6267865;22;20031;-91
2021/03/07 06:41:32;;;;;;;9.27;2.17;;;;;;;;;;6293408;22;20022;-91
2021/03/07 06:44:26;;;;;;;6.07;2.40;;;;;;;;;;6267726;22;20019;-91
2021/03/07 06:46:53;;;;;;;4.55;2.40;;;;;;;;;;6289012;22;20008;-88
2021/03/07 06:49:24;;;;;;;6.25;2.28;;;;;;;;;;6292844;22;20065;-89
2021/03/07 06:51:51;;;;;;;5.00;2.60;;;;;;;;;;6268101;22;20008;-86
2021/03/07 06:54:20;;;;;;;4.63;2.25;;;;;;;;;;6292342;22;20098;-88
2021/03/07 06:56:49;;;;;;;6.15;2.38;;;;;;;;;;6293176;22;20011;-89
2021/03/07 06:59:20;;;;;;;6.82;2.70;;;;;;;;;;6292619;22;20082;-90
2021/03/07 07:01:48;;;;;;;7.32;2.83;;;;;;;;;;6268051;22;20011;-91
2021/03/07 07:04:16;;;;;;;5.00;2.70;;;;;;;;;;6293036;22;20032;-89
2021/03/07 07:06:59;;;;;;;6.18;2.70;;;;;;;;;;6268018;22;20137;-89
2021/03/07 07:09:26;;;;;;;7.93;2.70;;;;;;;;;;6292349;22;20034;-90
2021/03/07 07:11:54;;;;;;;6.95;2.95;;;;;;;;;;6323427;22;20018;-90
2021/03/07 07:14:43;;;;;;;4.55;2.72;;;;;;;;;;6323531;22;20069;-91
2021/03/07 07:17:12;;;;;;;5.13;3.13;;;;;;;;;;6324216;22;20088;-90
2021/03/07 07:19:40;;;;;;;5.75;3.15;;;;;;;;;;6300390;22;20038;-91
2021/03/07 07:22:09;;;;;;;8.05;3.33;;;;;;;;;;6325146;22;20040;-93
2021/03/07 07:24:38;;;;;;;6.20;3.28;;;;;;;;;;6325193;22;20098;-91
2021/03/07 07:27:07;;;;;;;8.40;3.20;;;;;;;;;;6325857;22;20188;-92
2021/03/07 07:29:35;;;;;;;8.00;3.50;;;;;;;;;;6298126;22;20011;-92
2021/03/07 07:32:21;;;;;;;;;;;;;;;;;;;;;
2021/03/07 07:34:52;;;;;;;7.78;3.45;;;;;;;;;;6352834;22;20023;-91
2021/03/07 07:37:28;;;;;;;9.15;3.63;;;;;;;;;;6325009;22;20015;-89
2021/03/07 07:39:56;;;;;;;5.57;3.47;;;;;;;;;;6325072;22;20082;-91
2021/03/07 07:42:24;;;;;;;8.18;4.00;;;;;;;;;;6323194;22;20013;-92
2021/03/07 07:44:52;;;;;;;9.32;4.28;;;;;;;;;;6325614;22;20446;-91
2021/03/07 07:47:20;;;;;;;9.90;4.53;;;;;;;;;;6299661;22;20011;-90
2021/03/07 07:50:06;;;;;;;7.82;4.18;;;;;;;;;;6299691;22;20140;-91
2021/03/07 07:52:40;;;;;;;8.25;4.18;;;;;;;;;;6299787;22;20007;-95
2021/03/07 07:55:19;;;;;;;11.70;4.32;;;;;;;;;;6300720;22;20034;-93
2021/03/07 07:57:48;;;;;;;7.60;4.35;;;;;;;;;;6300134;22;20092;-90
2021/03/07 08:00:44;;;;;;;10.32;4.30;;;;;;;;;;6324668;22;20014;-89
2021/03/07 08:03:34;;;;;;;7.55;4.47;;;;;;;;;;6299113;22;20447;-90
2021/03/07 08:06:06;;;;;;;7.65;4.22;;;;;;;;;;6325352;22;20033;-89
2021/03/07 08:08:37;;;;;;;7.97;4.25;;;;;;;;;;6324907;22;20011;-92
2021/03/07 08:11:07;;;;;;;9.73;4.55;;;;;;;;;;6324666;22;20010;-91
2021/03/07 08:13:37;;;;;;;7.97;4.07;;;;;;;;;;6325199;22;20118;-90
2021/03/07 08:19:06;;;;;;;7.15;4.43;;;;;;;;;;6304088;22;20019;-91
2021/03/07 08:21:57;;;;;;;7.80;4.10;;;;;;;;;;6327384;22;20443;-92
2021/03/07 08:24:47;;;;;;;9.32;4.82;;;;;;;;;;6323966;22;20443;-94
2021/03/07 08:27:50;;;;;;;10.32;4.45;;;;;;;;;;6291070;22;20056;-91
2021/03/07 08:30:45;;;;;;;8.68;4.68;;;;;;;;;;6231267;23;20013;-91
2021/03/07 08:33:23;;;;;;;7.50;4.32;;;;;;;;;;6298898;22;20072;-92
2021/03/07 08:36:20;;;;;;;6.55;4.43;;;;;;;;;;6325338;22;20011;-94
2021/03/07 08:38:54;;;;;;;9.98;4.40;;;;;;;;;;6298320;22;20443;-94
2021/03/07 08:41:21;;;;;;;9.73;4.43;;;;;;;;;;6323773;22;20078;-91
2021/03/07 08:43:49;;;;;;;7.65;4.78;;;;;;;;;;6324616;22;20082;-91
2021/03/07 08:46:19;;;;;;;8.98;5.00;;;;;;;;;;6299025;22;20015;-95
2021/03/07 08:48:50;;;;;;;10.00;5.05;;;;;;;;;;6325491;22;20011;-94
2021/03/07 08:51:19;;;;;;;11.88;4.97;;;;;;;;;;6325537;22;20428;-94
2021/03/07 08:53:52;;;;;;;9.75;5.07;;;;;;;;;;6324648;22;20011;-96
2021/03/07 08:56:25;;;;;;;8.40;4.85;;;;;;;;;;6298971;22;20015;-93
2021/03/07 08:58:52;;;;;;;10.40;5.47;;;;;;;;;;6300682;22;20016;-93
2021/03/07 09:01:20;;;;;;;9.63;5.93;;;;;;;;;;6324968;22;20032;-90
2021/03/07 09:03:54;;;;;;;9.93;5.75;;;;;;;;;;6275691;22;20439;-96
2021/03/07 09:06:26;;;;;;;11.50;5.60;;;;;;;;;;6326010;22;20082;-90
2021/03/07 09:09:15;;;;;;;10.57;5.80;;;;;;;;;;6329551;22;20442;-94
2021/03/07 09:11:50;;;;;;;11.95;5.80;;;;;;;;;;6330302;22;20019;-93
2021/03/07 09:14:19;;;;;;;10.20;5.60;;;;;;;;;;6327878;22;20039;-92
2021/03/07 09:16:48;;;;;;;11.63;5.85;;;;;;;;;;6330401;22;20427;-93
2021/03/07 09:19:25;;;;;;;10.55;6.07;;;;;;;;;;6330352;22;20015;-95
2021/03/07 09:22:08;;;;;;;9.90;6.15;;;;;;;;;;6326947;22;20041;-96
2021/03/07 09:24:36;;;;;;;8.48;5.78;;;;;;;;;;6300916;22;20102;-95
2021/03/07 09:27:14;;;;;;;13.82;6.03;;;;;;;;;;6299352;22;20011;-92
2021/03/07 09:30:00;;;;;;;10.32;6.30;;;;;;;;;;6300030;22;20018;-94
2021/03/07 09:32:30;;;;;;;10.00;5.97;;;;;;;;;;6299198;22;20031;-93
2021/03/07 09:35:01;;;;;;;13.45;6.57;;;;;;;;;;6300884;22;20016;-93
2021/03/07 09:37:37;;;;;;;11.73;6.60;;;;;;;;;;6303797;22;20454;-90
2021/03/07 09:40:10;;;;;;;11.00;6.55;;;;;;;;;;6324536;22;20014;-93
2021/03/07 09:42:37;;;;;;;9.27;6.15;;;;;;;;;;6299401;22;20011;-90
2021/03/07 09:45:06;;;;;;;13.75;6.82;;;;;;;;;;6300242;22;20007;-96
2021/03/07 09:47:33;;;;;;;11.45;7.18;;;;;;;;;;6298242;22;20016;-92
2021/03/07 09:50:01;;;;;;;15.30;7.68;;;;;;;;;;6298309;22;20011;-92
2021/03/07 09:52:29;;;;;;;11.45;7.15;;;;;;;;;;6298036;22;20011;-93
2021/03/07 09:54:57;;;;;;;11.98;7.00;;;;;;;;;;6298899;22;20110;-94
2021/03/07 09:57:24;;;;;;;11.70;7.28;;;;;;;;;;6324435;22;20007;-93
2021/03/07 09:59:52;;;;;;;14.13;7.07;;;;;;;;;;6298653;22;20015;-90
2021/03/07 10:02:20;;;;;;;15.50;7.72;;;;;;;;;;6274076;22;20007;-90
2021/03/07 10:04:50;;;;;;;12.98;7.20;;;;;;;;;;6324450;22;20014;-90
2021/03/07 10:07:18;;;;;;;15.43;6.65;;;;;;;;;;6324255;22;20019;-91
2021/03/07 10:09:58;;;;;;;12.43;6.90;;;;;;;;;;6323655;22;20011;-91
2021/03/07 10:12:26;;;;;;;12.25;7.10;;;;;;;;;;6322835;22;20402;-90
2021/03/07 10:14:54;;;;;;;10.70;7.22;;;;;;;;;;6321221;22;20015;-89
2021/03/07 10:17:22;;;;;;;15.57;7.22;;;;;;;;;;6320334;22;20007;-89
2021/03/07 10:19:50;;;;;;;11.95;7.13;;;;;;;;;;6322127;22;20012;-87
2021/03/07 10:22:19;;;;;;;12.93;7.85;;;;;;;;;;6323750;22;20011;-87
2021/03/07 10:24:52;;;;;;;14.65;7.82;;;;;;;;;;6322968;22;20019;-87
2021/03/07 10:27:19;;;;;;;12.15;7.63;;;;;;;;;;6323752;22;20494;-88
2021/03/07 10:29:48;;;;;;;14.13;7.80;;;;;;;;;;6323669;22;20443;-92
2021/03/07 10:32:37;;;;;;;11.55;7.65;;;;;;;;;;6324347;22;20458;-91
2021/03/07 10:35:46;;;;;;;13.60;7.68;;;;;;;;;;6300752;22;20011;-92
2021/03/07 10:38:19;;;;;;;13.65;8.10;;;;;;;;;;6298219;22;20012;-88
2021/03/07 10:40:46;;;;;;;16.77;7.95;;;;;;;;;;6297702;22;20022;-88
2021/03/07 10:43:13;;;;;;;14.07;8.45;;;;;;;;;;6323805;22;20072;-89
2021/03/07 10:45:54;;;;;;;15.68;8.70;;;;;;;;;;6297725;22;20336;-88
2021/03/07 10:48:21;;;;;;;18.85;8.80;;;;;;;;;;6298102;22;20008;-89
2021/03/07 10:50:51;;;;;;;13.30;9.13;;;;;;;;;;6271922;22;20522;-86
2021/03/07 10:53:22;;;;;;;16.73;9.40;;;;;;;;;;6299412;22;20447;-89
2021/03/07 10:55:52;;;;;;;18.10;9.20;;;;;;;;;;6300325;22;20012;-88
2021/03/07 10:58:20;;;;;;;15.90;9.07;;;;;;;;;;6274569;22;20073;-89
2021/03/07 11:00:47;;;;;;;15.70;9.25;;;;;;;;;;6299309;22;20099;-93
2021/03/07 11:03:14;;;;;;;15.60;9.18;;;;;;;;;;6275082;22;20011;-92
2021/03/07 11:06:05;;;;;;;16.17;9.18;;;;;;;;;;6324962;22;20012;-92
2021/03/07 11:08:42;;;;;;;20.33;8.90;;;;;;;;;;6326595;22;20332;-88
2021/03/07 11:11:09;;;;;;;15.35;9.65;;;;;;;;;;6283428;22;20016;-89
2021/03/07 11:13:37;;;;;;;15.75;9.82;;;;;;;;;;6241530;22;20098;-89
2021/03/07 11:16:04;;;;;;;18.88;10.52;;;;;;;;;;6269285;22;20015;-89
2021/03/07 11:18:38;;;;;;;17.08;10.50;;;;;;;;;;6268611;22;20436;-89
2021/03/07 11:21:07;;;;;;;17.58;10.52;;;;;;;;;;6269804;22;20023;-89
2021/03/07 11:23:34;;;;;;;17.50;10.38;;;;;;;;;;6267904;22;20313;-91
2021/03/07 11:26:03;;;;;;;15.73;9.98;;;;;;;;;;6269361;22;20021;-89
2021/03/07 11:28:30;;;;;;;21.90;9.95;;;;;;;;;;6268992;22;20007;-90
2021/03/07 11:30:58;;;;;;;15.77;9.60;;;;;;;;;;6268159;22;20027;-89
2021/03/07 11:33:25;;;;;;;15.73;10.07;;;;;;;;;;6244872;22;20064;-90
2021/03/07 11:35:53;;;;;;;15.02;9.07;;;;;;;;;;6268455;22;20398;-90
2021/03/07 11:38:20;;;;;;;18.02;10.13;;;;;;;;;;6268894;22;20301;-87
2021/03/07 11:40:47;;;;;;;19.38;9.45;;;;;;;;;;6242576;22;20019;-87
2021/03/07 11:43:15;;;;;;;16.58;9.93;;;;;;;;;;6268957;22;20057;-89
2021/03/07 11:45:42;;;;;;;16.73;10.65;;;;;;;;;;6293668;22;20073;-89
2021/03/07 11:48:10;;;;;;;15.23;9.43;;;;;;;;;;6294218;22;20007;-89
2021/03/07 11:50:37;;;;;;;14.50;9.25;;;;;;;;;;6293640;22;20003;-89
2021/03/07 11:53:04;;;;;;;16.58;9.70;;;;;;;;;;6294745;22;20432;-90
2021/03/07 11:55:32;;;;;;;14.95;9.18;;;;;;;;;;6296133;22;20086;-89
2021/03/07 11:57:59;;;;;;;17.23;10.45;;;;;;;;;;6294771;22;20053;-89
2021/03/07 12:00:26;;;;;;;16.70;9.43;;;;;;;;;;6244500;22;20015;-89
2021/03/07 12:02:54;;;;;;;18.23;10.68;;;;;;;;;;6268006;22;20008;-89
2021/03/07 12:05:21;;;;;;;15.32;9.40;;;;;;;;;;6269527;22;20497;-89
2021/03/07 12:07:48;;;;;;;16.05;10.73;;;;;;;;;;6293663;22;20004;-92
2021/03/07 12:10:16;;;;;;;17.58;10.10;;;;;;;;;;6271623;22;20003;-90
2021/03/07 12:12:43;;;;;;;15.57;10.63;;;;;;;;;;6304808;22;20011;-90
2021/03/07 12:15:11;;;;;;;15.27;10.13;;;;;;;;;;6294626;22;20011;-90
2021/03/07 12:17:39;;;;;;;18.63;10.80;;;;;;;;;;6320246;22;20459;-90
2021/03/07 12:20:06;;;;;;;18.23;10.75;;;;;;;;;;6268758;22;20098;-89
2021/03/07 12:22:35;;;;;;;17.25;10.45;;;;;;;;;;6320184;22;20032;-90
2021/03/07 12:25:04;;;;;;;16.52;10.65;;;;;;;;;;6319426;22;20038;-89
2021/03/07 12:27:31;;;;;;;16.70;9.45;;;;;;;;;;6319978;22;20004;-90
2021/03/07 12:29:58;;;;;;;17.15;10.63;;;;;;;;;;6268713;22;20008;-90
2021/03/07 12:32:26;;;;;;;22.17;10.90;;;;;;;;;;6294347;22;20016;-90
2021/03/07 12:34:53;;;;;;;19.38;10.60;;;;;;;;;;6319114;22;20084;-90
2021/03/07 12:37:20;;;;;;;19.95;11.18;;;;;;;;;;6320374;22;20008;-90
2021/03/07 12:39:47;;;;;;;22.73;10.95;;;;;;;;;;6319075;22;20031;-90
2021/03/07 12:42:15;;;;;;;17.30;10.00;;;;;;;;;;6320082;22;20018;-90
2021/03/07 12:44:42;;;;;;;20.58;11.32;;;;;;;;;;6293961;22;20094;-90
2021/03/07 12:47:09;;;;;;;19.88;11.35;;;;;;;;;;6293675;22;20088;-90
2021/03/07 12:49:39;;;;;;;18.63;11.85;;;;;;;;;;6294107;22;20424;-88
2021/03/07 12:52:06;;;;;;;18.55;11.10;;;;;;;;;;6319157;22;20022;-90
2021/03/07 12:54:34;;;;;;;20.92;12.00;;;;;;;;;;6294413;22;20107;-90
2021/03/07 12:57:10;;;;;;;21.38;13.20;;;;;;;;;;6293879;22;20015;-88
2021/03/07 12:59:37;;;;;;;22.02;13.32;;;;;;;;;;6294275;22;20008;-89
2021/03/07 13:02:05;;;;;;;22.27;12.95;;;;;;;;;;6319140;22;20007;-88
2021/03/07 13:04:32;;;;;;;23.48;13.25;;;;;;;;;;6293952;22;20436;-89
2021/03/07 13:06:59;;;;;;;24.23;13.73;;;;;;;;;;6268419;22;20098;-90
2021/03/07 13:09:27;;;;;;;24.75;13.65;;;;;;;;;;6294241;22;20012;-90
2021/03/07 13:11:54;;;;;;;26.60;14.77;;;;;;;;;;6277841;22;20020;-90
2021/03/07 13:14:21;;;;;;;23.50;13.23;;;;;;;;;;6268136;22;20022;-89
2021/03/07 13:16:49;;;;;;;23.80;13.48;;;;;;;;;;6320592;22;20030;-89
2021/03/07 13:19:16;;;;;;;23.48;15.45;;;;;;;;;;6294008;22;20095;-89
2021/03/07 13:21:43;;;;;;;23.83;13.65;;;;;;;;;;6268536;22;20018;-90
2021/03/07 13:24:11;;;;;;;25.27;13.75;;;;;;;;;;6268431;22;20043;-89
2021/03/07 13:26:39;;;;;;;24.15;13.45;;;;;;;;;;6243375;22;20065;-89
2021/03/07 13:29:09;;;;;;;25.23;14.32;;;;;;;;;;6243788;22;20053;-89
2021/03/07 13:31:37;;;;;;;26.20;14.50;;;;;;;;;;6268580;22;20023;-91
2021/03/07 13:34:04;;;;;;;28.40;14.55;;;;;;;;;;6268034;22;20086;-87
2021/03/07 13:36:31;;;;;;;26.58;12.85;;;;;;;;;;6268714;22;20014;-91
2021/03/07 13:38:59;;;;;;;26.83;14.07;;;;;;;;;;6293495;22;20094;-90
2021/03/07 13:41:26;;;;;;;28.20;14.95;;;;;;;;;;6243423;22;20015;-90
2021/03/07 13:43:53;;;;;;;31.25;16.08;;;;;;;;;;6293387;22;20094;-90
2021/03/07 13:46:21;;;;;;;28.17;16.38;;;;;;;;;;6243610;22;20045;-90
2021/03/07 13:48:48;;;;;;;26.98;15.65;;;;;;;;;;6268097;22;20083;-90
2021/03/07 13:51:15;;;;;;;28.98;16.38;;;;;;;;;;6267435;22;20046;-91
2021/03/07 13:53:45;;;;;;;27.02;15.63;;;;;;;;;;6243683;22;20016;-90
2021/03/07 13:56:12;;;;;;;28.25;16.23;;;;;;;;;;6243054;22;20012;-89
2021/03/07 13:58:43;;;;;;;27.40;16.05;;;;;;;;;;6269430;22;20014;-90
2021/03/07 14:01:12;;;;;;;28.23;16.52;;;;;;;;;;6243522;22;20012;-90
2021/03/07 14:03:40;;;;;;;25.70;15.57;;;;;;;;;;6242538;22;20044;-89
2021/03/07 14:06:07;;;;;;;26.85;15.85;;;;;;;;;;6293185;22;20058;-89
2021/03/07 14:08:34;;;;;;;29.25;16.67;;;;;;;;;;6268192;22;20007;-89
2021/03/07 14:11:02;;;;;;;33.40;17.40;;;;;;;;;;6302145;22;20035;-90
2021/03/07 14:13:29;;;;;;;27.55;16.48;;;;;;;;;;6298940;22;20015;-89
2021/03/07 14:15:56;;;;;;;31.60;15.40;;;;;;;;;;6300002;22;20011;-89
2021/03/07 14:18:27;;;;;;;29.83;16.33;;;;;;;;;;6300477;22;20007;-91
2021/03/07 14:20:54;;;;;;;28.73;16.17;;;;;;;;;;6298915;22;20011;-89
2021/03/07 14:23:21;;;;;;;28.60;15.75;;;;;;;;;;6323671;22;20041;-89
2021/03/07 14:25:49;;;;;;;29.63;15.20;;;;;;;;;;6324830;22;20015;-88
2021/03/07 14:28:16;;;;;;;30.42;15.88;;;;;;;;;;6300300;22;20022;-90
2021/03/07 14:30:44;;;;;;;26.38;14.77;;;;;;;;;;6275428;22;20041;-89
2021/03/07 14:33:11;;;;;;;36.70;16.77;;;;;;;;;;6326116;22;20014;-90
2021/03/07 14:35:38;;;;;;;29.67;16.33;;;;;;;;;;6326639;22;20011;-90
2021/03/07 14:38:05;;;;;;;27.75;16.98;;;;;;;;;;6274944;22;20041;-90
2021/03/07 14:40:33;;;;;;;25.75;16.15;;;;;;;;;;6326341;22;20011;-91
2021/03/07 14:43:00;;;;;;;31.77;16.40;;;;;;;;;;6327008;22;20034;-91
2021/03/07 14:45:29;;;;;;;25.52;14.95;;;;;;;;;;6325407;22;20011;-90
2021/03/07 14:47:57;;;;;;;29.95;15.40;;;;;;;;;;6300752;22;20149;-91
2021/03/07 14:50:24;;;;;;;27.83;14.73;;;;;;;;;;6274793;22;20432;-91
2021/03/07 14:52:52;;;;;;;26.75;14.75;;;;;;;;;;6300491;22;20007;-90